sensor_id;sensor_type;location;lat;lon;timestamp;P1;durP1;ratioP1;P2;durP2;ratioP2
24631;SDS011;59977;48.782;9.190;2023-12-14T00:00:17;3.08;;;1.52;;
24631;SDS011;59977;48.782;9.190;2023-12-14T00:02:44;5.43;;;2.50;;
24631;SDS011;59977;48.782;9.190;2023-12-14T00:05:09;5.53;;;1.55;;
24631;SDS011;59977;48.782;9.190;2023-12-14T00:07:35;3.83;;;1.27;;
24631;SDS011;59977;48.782;9.190;2023-12-14T00:10:01;3.67;;;1.08;;
24631;SDS011;59977;48.782;9.190;2023-12-14T00:12:28;2.15;;;1.13;;
24631;SDS011;59977;48.782;9.190;2023-12-14T00:14:53;3.90;;;1.70;;
24631;SDS011;59977;48.782;9.190;2023-12-14T00:17:19;2.47;;;1.27;;
24631;SDS011;59977;48.782;9.190;2023-12-14T00:19:45;6.53;;;1.50;;
24631;SDS011;59977;48.782;9.190;2023-12-14T00:22:10;3.05;;;1.27;;
24631;SDS011;59977;48.782;9.190;2023-12-14T00:24:36;5.93;;;1.50;;
24631;SDS011;59977;48.782;9.190;2023-12-14T00:27:01;4.20;;;1.40;;
24631;SDS011;59977;48.782;9.190;2023-12-14T00:29:27;5.85;;;1.52;;
24631;SDS011;59977;48.782;9.190;2023-12-14T00:31:53;3.65;;;1.50;;
24631;SDS011;59977;48.782;9.190;2023-12-14T00:34:18;5.07;;;1.30;;
24631;SDS011;59977;48.782;9.190;2023-12-14T00:36:44;4.60;;;1.38;;
24631;SDS011;59977;48.782;9.190;2023-12-14T00:39:10;2.38;;;1.27;;
24631;SDS011;59977;48.782;9.190;2023-12-14T00:41:35;8.30;;;1.35;;
24631;SDS011;59977;48.782;9.190;2023-12-14T00:44:01;3.72;;;1.33;;
24631;SDS011;59977;48.782;9.190;2023-12-14T00:46:26;5.35;;;1.50;;
24631;SDS011;59977;48.782;9.190;2023-12-14T00:48:52;5.10;;;1.58;;
24631;SDS011;59977;48.782;9.190;2023-12-14T00:51:17;7.07;;;1.70;;
24631;SDS011;59977;48.782;9.190;2023-12-14T00:53:43;3.28;;;1.40;;
24631;SDS011;59977;48.782;9.190;2023-12-14T00:56:09;2.17;;;1.25;;
24631;SDS011;59977;48.782;9.190;2023-12-14T00:58:34;3.22;;;1.70;;
24631;SDS011;59977;48.782;9.190;2023-12-14T01:01:00;2.72;;;1.67;;
24631;SDS011;59977;48.782;9.190;2023-12-14T01:03:26;4.80;;;1.70;;
24631;SDS011;59977;48.782;9.190;2023-12-14T01:05:51;5.43;;;1.80;;
24631;SDS011;59977;48.782;9.190;2023-12-14T01:08:17;1.95;;;1.48;;
24631;SDS011;59977;48.782;9.190;2023-12-14T01:10:43;4.90;;;2.30;;
24631;SDS011;59977;48.782;9.190;2023-12-14T01:13:08;4.60;;;1.70;;
24631;SDS011;59977;48.782;9.190;2023-12-14T01:15:34;4.30;;;1.90;;
24631;SDS011;59977;48.782;9.190;2023-12-14T01:18:00;2.38;;;1.50;;
24631;SDS011;59977;48.782;9.190;2023-12-14T01:20:25;11.90;;;2.00;;
24631;SDS011;59977;48.782;9.190;2023-12-14T01:22:51;3.97;;;1.85;;
24631;SDS011;59977;48.782;9.190;2023-12-14T01:25:17;8.45;;;1.92;;
24631;SDS011;59977;48.782;9.190;2023-12-14T01:27:42;3.63;;;1.70;;
24631;SDS011;59977;48.782;9.190;2023-12-14T01:30:08;5.57;;;1.67;;
24631;SDS011;59977;48.782;9.190;2023-12-14T01:32:34;3.40;;;1.40;;
24631;SDS011;59977;48.782;9.190;2023-12-14T01:34:59;6.72;;;1.88;;
24631;SDS011;59977;48.782;9.190;2023-12-14T01:37:25;4.65;;;1.40;;
24631;SDS011;59977;48.782;9.190;2023-12-14T01:39:50;4.75;;;1.80;;
24631;SDS011;59977;48.782;9.190;2023-12-14T01:42:16;4.30;;;1.58;;
24631;SDS011;59977;48.782;9.190;2023-12-14T01:44:41;5.20;;;1.88;;
24631;SDS011;59977;48.782;9.190;2023-12-14T01:47:07;6.82;;;1.50;;
24631;SDS011;59977;48.782;9.190;2023-12-14T01:49:33;2.65;;;1.55;;
24631;SDS011;59977;48.782;9.190;2023-12-14T01:51:58;4.55;;;2.10;;
24631;SDS011;59977;48.782;9.190;2023-12-14T01:54:24;2.95;;;1.50;;
24631;SDS011;59977;48.782;9.190;2023-12-14T01:56:50;3.72;;;2.10;;
24631;SDS011;59977;48.782;9.190;2023-12-14T01:59:15;5.13;;;1.95;;
24631;SDS011;59977;48.782;9.190;2023-12-14T02:01:42;7.28;;;1.85;;
24631;SDS011;59977;48.782;9.190;2023-12-14T02:04:09;3.60;;;1.50;;
24631;SDS011;59977;48.782;9.190;2023-12-14T02:06:35;3.60;;;1.50;;
24631;SDS011;59977;48.782;9.190;2023-12-14T02:09:01;5.80;;;2.60;;
24631;SDS011;59977;48.782;9.190;2023-12-14T02:11:27;5.15;;;1.83;;
24631;SDS011;59977;48.782;9.190;2023-12-14T02:13:53;5.50;;;1.83;;
24631;SDS011;59977;48.782;9.190;2023-12-14T02:16:18;2.70;;;1.38;;
24631;SDS011;59977;48.782;9.190;2023-12-14T02:18:44;4.93;;;1.33;;
24631;SDS011;59977;48.782;9.190;2023-12-14T02:21:10;2.97;;;1.40;;
24631;SDS011;59977;48.782;9.190;2023-12-14T02:23:42;5.25;;;1.40;;
24631;SDS011;59977;48.782;9.190;2023-12-14T02:26:11;5.78;;;1.40;;
24631;SDS011;59977;48.782;9.190;2023-12-14T02:28:37;1.92;;;1.10;;
24631;SDS011;59977;48.782;9.190;2023-12-14T02:31:03;2.88;;;1.30;;
24631;SDS011;59977;48.782;9.190;2023-12-14T02:33:29;4.53;;;1.40;;
24631;SDS011;59977;48.782;9.190;2023-12-14T02:35:54;4.13;;;1.20;;
24631;SDS011;59977;48.782;9.190;2023-12-14T02:38:20;1.75;;;1.08;;
24631;SDS011;59977;48.782;9.190;2023-12-14T02:40:46;2.88;;;1.20;;
24631;SDS011;59977;48.782;9.190;2023-12-14T02:43:12;4.72;;;1.30;;
24631;SDS011;59977;48.782;9.190;2023-12-14T02:45:38;4.20;;;1.40;;
24631;SDS011;59977;48.782;9.190;2023-12-14T02:48:03;5.15;;;1.13;;
24631;SDS011;59977;48.782;9.190;2023-12-14T02:50:29;4.70;;;1.17;;
24631;SDS011;59977;48.782;9.190;2023-12-14T02:52:55;4.68;;;1.40;;
24631;SDS011;59977;48.782;9.190;2023-12-14T02:55:21;3.75;;;1.02;;
24631;SDS011;59977;48.782;9.190;2023-12-14T02:57:46;2.55;;;1.10;;
24631;SDS011;59977;48.782;9.190;2023-12-14T03:00:12;1.90;;;1.00;;
24631;SDS011;59977;48.782;9.190;2023-12-14T03:02:38;1.67;;;1.10;;
24631;SDS011;59977;48.782;9.190;2023-12-14T03:05:04;3.63;;;1.48;;
24631;SDS011;59977;48.782;9.190;2023-12-14T03:07:29;3.03;;;1.13;;
24631;SDS011;59977;48.782;9.190;2023-12-14T03:09:55;1.83;;;1.00;;
24631;SDS011;59977;48.782;9.190;2023-12-14T03:12:21;2.30;;;1.00;;
24631;SDS011;59977;48.782;9.190;2023-12-14T03:14:46;1.35;;;1.10;;
24631;SDS011;59977;48.782;9.190;2023-12-14T03:17:12;4.22;;;1.10;;
24631;SDS011;59977;48.782;9.190;2023-12-14T03:19:41;4.75;;;1.13;;
24631;SDS011;59977;48.782;9.190;2023-12-14T03:22:07;1.98;;;1.13;;
24631;SDS011;59977;48.782;9.190;2023-12-14T03:24:33;5.22;;;1.20;;
24631;SDS011;59977;48.782;9.190;2023-12-14T03:26:59;3.17;;;1.30;;
24631;SDS011;59977;48.782;9.190;2023-12-14T03:29:25;1.42;;;1.00;;
24631;SDS011;59977;48.782;9.190;2023-12-14T03:31:52;4.57;;;1.27;;
24631;SDS011;59977;48.782;9.190;2023-12-14T03:34:17;4.10;;;1.08;;
24631;SDS011;59977;48.782;9.190;2023-12-14T03:36:43;6.63;;;0.90;;
24631;SDS011;59977;48.782;9.190;2023-12-14T03:39:08;2.67;;;1.15;;
24631;SDS011;59977;48.782;9.190;2023-12-14T03:41:35;2.30;;;1.25;;
24631;SDS011;59977;48.782;9.190;2023-12-14T03:44:00;3.30;;;1.13;;
24631;SDS011;59977;48.782;9.190;2023-12-14T03:46:26;1.42;;;1.00;;
24631;SDS011;59977;48.782;9.190;2023-12-14T03:48:52;3.88;;;1.10;;
24631;SDS011;59977;48.782;9.190;2023-12-14T03:51:18;5.55;;;1.35;;
24631;SDS011;59977;48.782;9.190;2023-12-14T03:53:44;1.73;;;1.00;;
24631;SDS011;59977;48.782;9.190;2023-12-14T03:56:10;3.13;;;1.00;;
24631;SDS011;59977;48.782;9.190;2023-12-14T03:58:36;4.05;;;1.25;;
24631;SDS011;59977;48.782;9.190;2023-12-14T04:01:01;3.10;;;1.23;;
24631;SDS011;59977;48.782;9.190;2023-12-14T04:03:27;3.65;;;1.30;;
24631;SDS011;59977;48.782;9.190;2023-12-14T04:05:53;3.90;;;1.10;;
24631;SDS011;59977;48.782;9.190;2023-12-14T04:08:18;1.92;;;1.20;;
24631;SDS011;59977;48.782;9.190;2023-12-14T04:10:44;2.78;;;1.10;;
24631;SDS011;59977;48.782;9.190;2023-12-14T04:13:09;1.50;;;1.17;;
24631;SDS011;59977;48.782;9.190;2023-12-14T04:15:35;3.45;;;1.20;;
24631;SDS011;59977;48.782;9.190;2023-12-14T04:18:00;2.72;;;1.38;;
24631;SDS011;59977;48.782;9.190;2023-12-14T04:20:26;5.63;;;1.67;;
24631;SDS011;59977;48.782;9.190;2023-12-14T04:22:51;1.83;;;1.10;;
24631;SDS011;59977;48.782;9.190;2023-12-14T04:25:17;2.58;;;1.15;;
24631;SDS011;59977;48.782;9.190;2023-12-14T04:27:42;1.67;;;1.05;;
24631;SDS011;59977;48.782;9.190;2023-12-14T04:30:08;2.88;;;1.50;;
24631;SDS011;59977;48.782;9.190;2023-12-14T04:32:38;3.30;;;1.65;;
24631;SDS011;59977;48.782;9.190;2023-12-14T04:35:04;3.90;;;1.38;;
24631;SDS011;59977;48.782;9.190;2023-12-14T04:37:30;5.35;;;1.38;;
24631;SDS011;59977;48.782;9.190;2023-12-14T04:39:57;4.85;;;1.45;;
24631;SDS011;59977;48.782;9.190;2023-12-14T04:42:22;2.42;;;1.40;;
24631;SDS011;59977;48.782;9.190;2023-12-14T04:44:48;2.45;;;1.38;;
24631;SDS011;59977;48.782;9.190;2023-12-14T04:47:13;5.75;;;1.48;;
24631;SDS011;59977;48.782;9.190;2023-12-14T04:49:39;7.88;;;1.80;;
24631;SDS011;59977;48.782;9.190;2023-12-14T04:52:05;5.55;;;1.80;;
24631;SDS011;59977;48.782;9.190;2023-12-14T04:54:31;4.20;;;1.67;;
24631;SDS011;59977;48.782;9.190;2023-12-14T04:56:57;6.85;;;1.80;;
24631;SDS011;59977;48.782;9.190;2023-12-14T04:59:22;4.10;;;1.83;;
24631;SDS011;59977;48.782;9.190;2023-12-14T05:01:48;3.67;;;1.70;;
24631;SDS011;59977;48.782;9.190;2023-12-14T05:04:13;4.15;;;2.20;;
24631;SDS011;59977;48.782;9.190;2023-12-14T05:06:39;2.97;;;1.70;;
24631;SDS011;59977;48.782;9.190;2023-12-14T05:09:05;5.03;;;1.92;;
24631;SDS011;59977;48.782;9.190;2023-12-14T05:11:31;6.40;;;2.50;;
24631;SDS011;59977;48.782;9.190;2023-12-14T05:13:57;4.85;;;2.15;;
24631;SDS011;59977;48.782;9.190;2023-12-14T05:16:23;6.28;;;2.10;;
24631;SDS011;59977;48.782;9.190;2023-12-14T05:18:52;2.42;;;1.90;;
24631;SDS011;59977;48.782;9.190;2023-12-14T05:21:18;4.28;;;1.98;;
24631;SDS011;59977;48.782;9.190;2023-12-14T05:23:44;4.75;;;2.30;;
24631;SDS011;59977;48.782;9.190;2023-12-14T05:26:10;5.82;;;2.70;;
24631;SDS011;59977;48.782;9.190;2023-12-14T05:28:35;3.03;;;2.30;;
24631;SDS011;59977;48.782;9.190;2023-12-14T05:31:01;4.70;;;2.63;;
24631;SDS011;59977;48.782;9.190;2023-12-14T05:33:27;4.53;;;2.70;;
24631;SDS011;59977;48.782;9.190;2023-12-14T05:35:53;5.60;;;3.08;;
24631;SDS011;59977;48.782;9.190;2023-12-14T05:38:19;6.72;;;2.78;;
24631;SDS011;59977;48.782;9.190;2023-12-14T05:40:44;6.53;;;2.70;;
24631;SDS011;59977;48.782;9.190;2023-12-14T05:43:10;8.90;;;3.25;;
24631;SDS011;59977;48.782;9.190;2023-12-14T05:45:36;5.03;;;2.92;;
24631;SDS011;59977;48.782;9.190;2023-12-14T05:48:02;4.80;;;2.25;;
24631;SDS011;59977;48.782;9.190;2023-12-14T05:50:30;7.93;;;1.95;;
24631;SDS011;59977;48.782;9.190;2023-12-14T05:52:56;3.45;;;2.00;;
24631;SDS011;59977;48.782;9.190;2023-12-14T05:55:22;2.85;;;2.10;;
24631;SDS011;59977;48.782;9.190;2023-12-14T05:57:48;2.72;;;2.30;;
24631;SDS011;59977;48.782;9.190;2023-12-14T06:00:13;4.22;;;2.20;;
24631;SDS011;59977;48.782;9.190;2023-12-14T06:02:39;4.72;;;2.17;;
24631;SDS011;59977;48.782;9.190;2023-12-14T06:05:06;3.65;;;2.28;;
24631;SDS011;59977;48.782;9.190;2023-12-14T06:07:32;4.70;;;2.47;;
24631;SDS011;59977;48.782;9.190;2023-12-14T06:09:58;4.80;;;2.50;;
24631;SDS011;59977;48.782;9.190;2023-12-14T06:12:24;3.55;;;2.30;;
24631;SDS011;59977;48.782;9.190;2023-12-14T06:14:50;3.60;;;2.55;;
24631;SDS011;59977;48.782;9.190;2023-12-14T06:17:15;7.88;;;3.05;;
24631;SDS011;59977;48.782;9.190;2023-12-14T06:19:41;5.05;;;3.25;;
24631;SDS011;59977;48.782;9.190;2023-12-14T06:22:07;8.35;;;3.97;;
24631;SDS011;59977;48.782;9.190;2023-12-14T06:24:33;11.15;;;4.30;;
24631;SDS011;59977;48.782;9.190;2023-12-14T06:26:58;8.10;;;3.83;;
24631;SDS011;59977;48.782;9.190;2023-12-14T06:29:24;7.95;;;4.13;;
24631;SDS011;59977;48.782;9.190;2023-12-14T06:31:49;9.15;;;3.67;;
24631;SDS011;59977;48.782;9.190;2023-12-14T06:34:16;8.82;;;4.20;;
24631;SDS011;59977;48.782;9.190;2023-12-14T06:36:44;8.32;;;3.85;;
24631;SDS011;59977;48.782;9.190;2023-12-14T06:39:10;9.50;;;3.85;;
24631;SDS011;59977;48.782;9.190;2023-12-14T06:41:36;9.85;;;3.40;;
24631;SDS011;59977;48.782;9.190;2023-12-14T06:44:02;8.18;;;3.30;;
24631;SDS011;59977;48.782;9.190;2023-12-14T06:46:28;7.88;;;3.65;;
24631;SDS011;59977;48.782;9.190;2023-12-14T06:48:53;7.40;;;3.20;;
24631;SDS011;59977;48.782;9.190;2023-12-14T06:51:20;7.43;;;3.60;;
24631;SDS011;59977;48.782;9.190;2023-12-14T06:53:46;8.55;;;3.63;;
24631;SDS011;59977;48.782;9.190;2023-12-14T06:56:12;7.13;;;3.50;;
24631;SDS011;59977;48.782;9.190;2023-12-14T06:58:39;6.55;;;3.53;;
24631;SDS011;59977;48.782;9.190;2023-12-14T07:01:05;6.53;;;3.85;;
24631;SDS011;59977;48.782;9.190;2023-12-14T07:03:31;9.35;;;4.10;;
24631;SDS011;59977;48.782;9.190;2023-12-14T07:05:57;8.60;;;4.05;;
24631;SDS011;59977;48.782;9.190;2023-12-14T07:08:23;8.88;;;3.53;;
24631;SDS011;59977;48.782;9.190;2023-12-14T07:10:49;10.98;;;4.53;;
24631;SDS011;59977;48.782;9.190;2023-12-14T07:13:14;5.45;;;3.70;;
24631;SDS011;59977;48.782;9.190;2023-12-14T07:15:40;12.38;;;3.95;;
24631;SDS011;59977;48.782;9.190;2023-12-14T07:18:06;5.97;;;3.80;;
24631;SDS011;59977;48.782;9.190;2023-12-14T07:20:31;10.18;;;4.10;;
24631;SDS011;59977;48.782;9.190;2023-12-14T07:22:57;6.78;;;3.80;;
24631;SDS011;59977;48.782;9.190;2023-12-14T07:25:23;7.30;;;3.70;;
24631;SDS011;59977;48.782;9.190;2023-12-14T07:27:48;7.93;;;4.32;;
24631;SDS011;59977;48.782;9.190;2023-12-14T07:30:14;9.85;;;4.28;;
24631;SDS011;59977;48.782;9.190;2023-12-14T07:32:39;6.88;;;4.20;;
24631;SDS011;59977;48.782;9.190;2023-12-14T07:35:05;6.78;;;3.88;;
24631;SDS011;59977;48.782;9.190;2023-12-14T07:37:31;7.40;;;4.38;;
24631;SDS011;59977;48.782;9.190;2023-12-14T07:39:57;7.05;;;4.55;;
24631;SDS011;59977;48.782;9.190;2023-12-14T07:42:23;6.75;;;4.18;;
24631;SDS011;59977;48.782;9.190;2023-12-14T07:44:49;7.60;;;4.80;;
24631;SDS011;59977;48.782;9.190;2023-12-14T07:47:14;6.35;;;4.32;;
24631;SDS011;59977;48.782;9.190;2023-12-14T07:49:40;6.28;;;3.95;;
24631;SDS011;59977;48.782;9.190;2023-12-14T07:52:05;6.35;;;3.92;;
24631;SDS011;59977;48.782;9.190;2023-12-14T07:54:31;7.57;;;3.75;;
24631;SDS011;59977;48.782;9.190;2023-12-14T07:56:57;6.38;;;3.78;;
24631;SDS011;59977;48.782;9.190;2023-12-14T07:59:23;5.38;;;3.30;;
24631;SDS011;59977;48.782;9.190;2023-12-14T08:01:48;7.55;;;3.50;;
24631;SDS011;59977;48.782;9.190;2023-12-14T08:04:14;7.25;;;3.83;;
24631;SDS011;59977;48.782;9.190;2023-12-14T08:06:40;4.72;;;3.50;;
24631;SDS011;59977;48.782;9.190;2023-12-14T08:09:06;9.40;;;3.80;;
24631;SDS011;59977;48.782;9.190;2023-12-14T08:11:32;8.25;;;3.88;;
24631;SDS011;59977;48.782;9.190;2023-12-14T08:13:58;6.93;;;4.30;;
24631;SDS011;59977;48.782;9.190;2023-12-14T08:16:23;7.68;;;3.88;;
24631;SDS011;59977;48.782;9.190;2023-12-14T08:18:49;9.90;;;3.97;;
24631;SDS011;59977;48.782;9.190;2023-12-14T08:21:15;5.53;;;4.10;;
24631;SDS011;59977;48.782;9.190;2023-12-14T08:23:42;8.57;;;4.93;;
24631;SDS011;59977;48.782;9.190;2023-12-14T08:26:07;8.05;;;4.60;;
24631;SDS011;59977;48.782;9.190;2023-12-14T08:28:35;8.45;;;4.63;;
24631;SDS011;59977;48.782;9.190;2023-12-14T08:31:01;8.02;;;4.72;;
24631;SDS011;59977;48.782;9.190;2023-12-14T08:33:30;7.43;;;4.80;;
24631;SDS011;59977;48.782;9.190;2023-12-14T08:35:56;6.28;;;4.63;;
24631;SDS011;59977;48.782;9.190;2023-12-14T08:38:22;7.80;;;4.80;;
24631;SDS011;59977;48.782;9.190;2023-12-14T08:40:47;7.47;;;4.72;;
24631;SDS011;59977;48.782;9.190;2023-12-14T08:43:13;7.15;;;4.60;;
24631;SDS011;59977;48.782;9.190;2023-12-14T08:45:39;7.32;;;4.80;;
24631;SDS011;59977;48.782;9.190;2023-12-14T08:48:05;6.80;;;4.47;;
24631;SDS011;59977;48.782;9.190;2023-12-14T08:50:31;9.77;;;4.70;;
24631;SDS011;59977;48.782;9.190;2023-12-14T08:52:56;8.75;;;4.82;;
24631;SDS011;59977;48.782;9.190;2023-12-14T08:55:25;6.68;;;5.00;;
24631;SDS011;59977;48.782;9.190;2023-12-14T08:57:51;8.82;;;5.07;;
24631;SDS011;59977;48.782;9.190;2023-12-14T09:00:17;9.07;;;5.47;;
24631;SDS011;59977;48.782;9.190;2023-12-14T09:02:43;7.00;;;5.03;;
24631;SDS011;59977;48.782;9.190;2023-12-14T09:05:11;8.15;;;5.45;;
24631;SDS011;59977;48.782;9.190;2023-12-14T09:07:37;11.05;;;4.85;;
24631;SDS011;59977;48.782;9.190;2023-12-14T09:10:03;9.25;;;5.78;;
24631;SDS011;59977;48.782;9.190;2023-12-14T09:12:29;6.32;;;5.07;;
24631;SDS011;59977;48.782;9.190;2023-12-14T09:14:55;8.32;;;5.38;;
24631;SDS011;59977;48.782;9.190;2023-12-14T09:17:21;10.48;;;5.60;;
24631;SDS011;59977;48.782;9.190;2023-12-14T09:19:46;7.30;;;5.30;;
24631;SDS011;59977;48.782;9.190;2023-12-14T09:22:12;6.25;;;5.10;;
24631;SDS011;59977;48.782;9.190;2023-12-14T09:24:38;6.35;;;5.55;;
24631;SDS011;59977;48.782;9.190;2023-12-14T09:27:03;8.15;;;5.25;;
24631;SDS011;59977;48.782;9.190;2023-12-14T09:29:29;10.02;;;5.60;;
24631;SDS011;59977;48.782;9.190;2023-12-14T09:31:54;10.70;;;5.50;;
24631;SDS011;59977;48.782;9.190;2023-12-14T09:34:20;9.30;;;5.60;;
24631;SDS011;59977;48.782;9.190;2023-12-14T09:36:46;9.80;;;5.72;;
24631;SDS011;59977;48.782;9.190;2023-12-14T09:39:11;7.88;;;5.10;;
24631;SDS011;59977;48.782;9.190;2023-12-14T09:41:37;10.98;;;5.25;;
24631;SDS011;59977;48.782;9.190;2023-12-14T09:44:04;12.80;;;5.40;;
24631;SDS011;59977;48.782;9.190;2023-12-14T09:46:31;10.00;;;5.80;;
24631;SDS011;59977;48.782;9.190;2023-12-14T09:49:01;7.57;;;5.45;;
24631;SDS011;59977;48.782;9.190;2023-12-14T09:51:29;10.32;;;5.60;;
24631;SDS011;59977;48.782;9.190;2023-12-14T09:53:55;8.73;;;6.05;;
24631;SDS011;59977;48.782;9.190;2023-12-14T09:56:26;9.68;;;6.35;;
24631;SDS011;59977;48.782;9.190;2023-12-14T09:58:52;15.45;;;7.00;;
24631;SDS011;59977;48.782;9.190;2023-12-14T10:01:22;11.82;;;7.10;;
24631;SDS011;59977;48.782;9.190;2023-12-14T10:03:49;10.27;;;7.05;;
24631;SDS011;59977;48.782;9.190;2023-12-14T10:06:15;11.00;;;6.55;;
24631;SDS011;59977;48.782;9.190;2023-12-14T10:08:42;15.73;;;7.32;;
24631;SDS011;59977;48.782;9.190;2023-12-14T10:11:20;11.93;;;6.80;;
24631;SDS011;59977;48.782;9.190;2023-12-14T10:13:46;13.68;;;7.13;;
24631;SDS011;59977;48.782;9.190;2023-12-14T10:16:11;16.10;;;7.90;;
24631;SDS011;59977;48.782;9.190;2023-12-14T10:18:37;11.98;;;7.15;;
24631;SDS011;59977;48.782;9.190;2023-12-14T10:21:05;9.65;;;6.38;;
24631;SDS011;59977;48.782;9.190;2023-12-14T10:23:33;13.73;;;7.20;;
24631;SDS011;59977;48.782;9.190;2023-12-14T10:25:59;11.75;;;6.90;;
24631;SDS011;59977;48.782;9.190;2023-12-14T10:28:25;10.63;;;6.80;;
24631;SDS011;59977;48.782;9.190;2023-12-14T10:30:52;12.85;;;7.35;;
24631;SDS011;59977;48.782;9.190;2023-12-14T10:33:18;10.48;;;5.95;;
24631;SDS011;59977;48.782;9.190;2023-12-14T10:35:43;7.68;;;5.75;;
24631;SDS011;59977;48.782;9.190;2023-12-14T10:38:11;12.30;;;4.75;;
24631;SDS011;59977;48.782;9.190;2023-12-14T10:40:38;12.15;;;5.55;;
24631;SDS011;59977;48.782;9.190;2023-12-14T10:43:08;8.68;;;5.50;;
24631;SDS011;59977;48.782;9.190;2023-12-14T10:45:35;12.02;;;5.90;;
24631;SDS011;59977;48.782;9.190;2023-12-14T10:48:02;15.57;;;6.10;;
24631;SDS011;59977;48.782;9.190;2023-12-14T10:50:30;12.75;;;5.97;;
24631;SDS011;59977;48.782;9.190;2023-12-14T10:52:58;12.40;;;6.82;;
24631;SDS011;59977;48.782;9.190;2023-12-14T10:55:27;15.50;;;6.82;;
24631;SDS011;59977;48.782;9.190;2023-12-14T10:58:02;9.90;;;6.38;;
24631;SDS011;59977;48.782;9.190;2023-12-14T11:00:28;13.65;;;6.70;;
24631;SDS011;59977;48.782;9.190;2023-12-14T11:02:55;10.98;;;6.18;;
24631;SDS011;59977;48.782;9.190;2023-12-14T11:05:24;10.63;;;6.05;;
24631;SDS011;59977;48.782;9.190;2023-12-14T11:10:27;9.38;;;6.20;;
24631;SDS011;59977;48.782;9.190;2023-12-14T11:13:01;10.43;;;5.93;;
24631;SDS011;59977;48.782;9.190;2023-12-14T11:15:28;7.32;;;5.40;;
24631;SDS011;59977;48.782;9.190;2023-12-14T11:20:54;12.55;;;5.78;;
24631;SDS011;59977;48.782;9.190;2023-12-14T11:25:51;11.32;;;5.78;;
24631;SDS011;59977;48.782;9.190;2023-12-14T11:28:18;12.75;;;6.13;;
24631;SDS011;59977;48.782;9.190;2023-12-14T11:30:45;11.65;;;5.63;;
24631;SDS011;59977;48.782;9.190;2023-12-14T11:33:12;14.18;;;6.07;;
24631;SDS011;59977;48.782;9.190;2023-12-14T11:35:38;12.38;;;5.90;;
24631;SDS011;59977;48.782;9.190;2023-12-14T11:38:04;17.10;;;6.75;;
24631;SDS011;59977;48.782;9.190;2023-12-14T11:40:44;17.95;;;6.68;;
24631;SDS011;59977;48.782;9.190;2023-12-14T11:43:10;14.85;;;6.07;;
24631;SDS011;59977;48.782;9.190;2023-12-14T11:45:39;12.55;;;4.82;;
24631;SDS011;59977;48.782;9.190;2023-12-14T11:48:09;10.23;;;4.90;;
24631;SDS011;59977;48.782;9.190;2023-12-14T11:50:37;8.13;;;4.78;;
24631;SDS011;59977;48.782;9.190;2023-12-14T11:53:04;10.85;;;5.28;;
24631;SDS011;59977;48.782;9.190;2023-12-14T11:55:30;7.60;;;4.55;;
24631;SDS011;59977;48.782;9.190;2023-12-14T11:57:57;9.82;;;4.60;;
24631;SDS011;59977;48.782;9.190;2023-12-14T12:00:23;8.57;;;4.22;;
24631;SDS011;59977;48.782;9.190;2023-12-14T12:05:38;11.48;;;4.25;;
24631;SDS011;59977;48.782;9.190;2023-12-14T12:08:05;7.07;;;3.20;;
24631;SDS011;59977;48.782;9.190;2023-12-14T12:10:31;8.55;;;2.28;;
24631;SDS011;59977;48.782;9.190;2023-12-14T12:12:58;7.75;;;2.92;;
24631;SDS011;59977;48.782;9.190;2023-12-14T12:15:28;5.85;;;2.97;;
24631;SDS011;59977;48.782;9.190;2023-12-14T12:17:53;5.22;;;2.22;;
24631;SDS011;59977;48.782;9.190;2023-12-14T12:20:19;6.55;;;2.00;;
24631;SDS011;59977;48.782;9.190;2023-12-14T12:22:44;3.80;;;2.15;;
24631;SDS011;59977;48.782;9.190;2023-12-14T12:25:10;4.93;;;2.78;;
24631;SDS011;59977;48.782;9.190;2023-12-14T12:27:35;5.57;;;2.20;;
24631;SDS011;59977;48.782;9.190;2023-12-14T12:30:01;4.38;;;1.98;;
24631;SDS011;59977;48.782;9.190;2023-12-14T12:32:28;4.85;;;2.60;;
24631;SDS011;59977;48.782;9.190;2023-12-14T12:34:53;5.07;;;2.55;;
24631;SDS011;59977;48.782;9.190;2023-12-14T12:37:19;5.50;;;2.15;;
24631;SDS011;59977;48.782;9.190;2023-12-14T12:39:44;4.25;;;1.90;;
24631;SDS011;59977;48.782;9.190;2023-12-14T12:42:10;5.75;;;1.90;;
24631;SDS011;59977;48.782;9.190;2023-12-14T12:44:35;2.47;;;1.70;;
24631;SDS011;59977;48.782;9.190;2023-12-14T12:47:01;3.30;;;1.80;;
24631;SDS011;59977;48.782;9.190;2023-12-14T12:49:27;4.38;;;2.13;;
24631;SDS011;59977;48.782;9.190;2023-12-14T12:51:52;3.80;;;1.65;;
24631;SDS011;59977;48.782;9.190;2023-12-14T12:54:18;4.68;;;1.52;;
24631;SDS011;59977;48.782;9.190;2023-12-14T12:56:44;4.60;;;1.70;;
24631;SDS011;59977;48.782;9.190;2023-12-14T12:59:10;9.32;;;2.00;;
24631;SDS011;59977;48.782;9.190;2023-12-14T13:01:36;3.25;;;1.80;;
24631;SDS011;59977;48.782;9.190;2023-12-14T13:04:02;3.67;;;1.55;;
24631;SDS011;59977;48.782;9.190;2023-12-14T13:06:29;4.10;;;1.80;;
24631;SDS011;59977;48.782;9.190;2023-12-14T13:08:55;2.88;;;1.52;;
24631;SDS011;59977;48.782;9.190;2023-12-14T13:11:20;4.05;;;1.50;;
24631;SDS011;59977;48.782;9.190;2023-12-14T13:13:46;5.70;;;2.33;;
24631;SDS011;59977;48.782;9.190;2023-12-14T13:16:12;5.22;;;2.17;;
24631;SDS011;59977;48.782;9.190;2023-12-14T13:18:39;4.88;;;1.92;;
24631;SDS011;59977;48.782;9.190;2023-12-14T13:21:05;5.70;;;2.08;;
24631;SDS011;59977;48.782;9.190;2023-12-14T13:23:31;2.58;;;1.83;;
24631;SDS011;59977;48.782;9.190;2023-12-14T13:25:57;3.70;;;1.60;;
24631;SDS011;59977;48.782;9.190;2023-12-14T13:28:23;4.03;;;1.40;;
24631;SDS011;59977;48.782;9.190;2023-12-14T13:30:49;3.28;;;1.73;;
24631;SDS011;59977;48.782;9.190;2023-12-14T13:33:14;3.10;;;1.50;;
24631;SDS011;59977;48.782;9.190;2023-12-14T13:35:40;11.93;;;3.17;;
24631;SDS011;59977;48.782;9.190;2023-12-14T13:38:05;6.75;;;2.40;;
24631;SDS011;59977;48.782;9.190;2023-12-14T13:40:33;7.88;;;2.33;;
24631;SDS011;59977;48.782;9.190;2023-12-14T13:42:58;9.05;;;3.40;;
24631;SDS011;59977;48.782;9.190;2023-12-14T13:45:26;5.18;;;2.70;;
24631;SDS011;59977;48.782;9.190;2023-12-14T13:47:54;7.60;;;2.30;;
24631;SDS011;59977;48.782;9.190;2023-12-14T13:50:20;5.18;;;2.10;;
24631;SDS011;59977;48.782;9.190;2023-12-14T13:52:46;3.78;;;2.25;;
24631;SDS011;59977;48.782;9.190;2023-12-14T13:55:12;4.50;;;2.50;;
24631;SDS011;59977;48.782;9.190;2023-12-14T13:57:37;5.70;;;2.50;;
24631;SDS011;59977;48.782;9.190;2023-12-14T14:00:03;6.00;;;2.45;;
24631;SDS011;59977;48.782;9.190;2023-12-14T14:02:29;3.28;;;1.98;;
24631;SDS011;59977;48.782;9.190;2023-12-14T14:04:55;3.28;;;2.30;;
24631;SDS011;59977;48.782;9.190;2023-12-14T14:07:20;5.47;;;3.20;;
24631;SDS011;59977;48.782;9.190;2023-12-14T14:09:47;6.22;;;3.60;;
24631;SDS011;59977;48.782;9.190;2023-12-14T14:12:13;9.35;;;4.35;;
24631;SDS011;59977;48.782;9.190;2023-12-14T14:14:39;9.20;;;4.72;;
24631;SDS011;59977;48.782;9.190;2023-12-14T14:17:05;10.35;;;4.53;;
24631;SDS011;59977;48.782;9.190;2023-12-14T14:19:32;10.25;;;5.70;;
24631;SDS011;59977;48.782;9.190;2023-12-14T14:21:58;17.33;;;6.28;;
24631;SDS011;59977;48.782;9.190;2023-12-14T14:24:23;12.13;;;6.30;;
24631;SDS011;59977;48.782;9.190;2023-12-14T14:26:49;13.15;;;6.88;;
24631;SDS011;59977;48.782;9.190;2023-12-14T14:29:14;13.25;;;8.50;;
24631;SDS011;59977;48.782;9.190;2023-12-14T14:31:40;12.25;;;7.95;;
24631;SDS011;59977;48.782;9.190;2023-12-14T14:34:06;15.50;;;9.88;;
24631;SDS011;59977;48.782;9.190;2023-12-14T14:36:31;16.75;;;9.20;;
24631;SDS011;59977;48.782;9.190;2023-12-14T14:38:57;14.73;;;8.57;;
24631;SDS011;59977;48.782;9.190;2023-12-14T14:41:22;15.98;;;8.98;;
24631;SDS011;59977;48.782;9.190;2023-12-14T14:43:48;12.20;;;8.40;;
24631;SDS011;59977;48.782;9.190;2023-12-14T14:46:13;16.52;;;9.45;;
24631;SDS011;59977;48.782;9.190;2023-12-14T14:48:39;16.75;;;9.82;;